sensor_id;sensor_type;location;lat;lon;timestamp;P1;durP1;ratioP1;P2;durP2;ratioP2
9166;SDS011;4618;48.818;9.088;2023-06-24T00:00:59;7.07;;;5.87;;
9166;SDS011;4618;48.818;9.088;2023-06-24T00:03:25;7.10;;;6.50;;
9166;SDS011;4618;48.818;9.088;2023-06-24T00:05:51;7.70;;;6.87;;
9166;SDS011;4618;48.818;9.088;2023-06-24T00:08:18;7.07;;;6.37;;
9166;SDS011;4618;48.818;9.088;2023-06-24T00:10:46;7.20;;;6.60;;
9166;SDS011;4618;48.818;9.088;2023-06-24T00:13:12;7.27;;;6.63;;
9166;SDS011;4618;48.818;9.088;2023-06-24T00:15:39;6.73;;;6.03;;
9166;SDS011;4618;48.818;9.088;2023-06-24T00:18:08;7.50;;;6.40;;
9166;SDS011;4618;48.818;9.088;2023-06-24T00:20:36;7.53;;;6.83;;
9166;SDS011;4618;48.818;9.088;2023-06-24T00:23:02;7.37;;;6.63;;
9166;SDS011;4618;48.818;9.088;2023-06-24T00:25:28;7.60;;;5.83;;
9166;SDS011;4618;48.818;9.088;2023-06-24T00:27:54;6.77;;;6.17;;
9166;SDS011;4618;48.818;9.088;2023-06-24T00:30:20;6.23;;;5.73;;
9166;SDS011;4618;48.818;9.088;2023-06-24T00:32:46;7.20;;;6.50;;
9166;SDS011;4618;48.818;9.088;2023-06-24T00:35:12;7.47;;;6.40;;
9166;SDS011;4618;48.818;9.088;2023-06-24T00:37:38;5.50;;;5.00;;
9166;SDS011;4618;48.818;9.088;2023-06-24T00:40:04;5.50;;;5.00;;
9166;SDS011;4618;48.818;9.088;2023-06-24T00:42:31;6.57;;;5.20;;
9166;SDS011;4618;48.818;9.088;2023-06-24T00:44:57;5.27;;;4.77;;
9166;SDS011;4618;48.818;9.088;2023-06-24T00:47:22;5.87;;;5.33;;
9166;SDS011;4618;48.818;9.088;2023-06-24T00:49:48;7.20;;;5.83;;
9166;SDS011;4618;48.818;9.088;2023-06-24T00:52:14;6.77;;;6.17;;
9166;SDS011;4618;48.818;9.088;2023-06-24T00:54:41;8.03;;;6.00;;
9166;SDS011;4618;48.818;9.088;2023-06-24T00:57:09;6.93;;;6.23;;
9166;SDS011;4618;48.818;9.088;2023-06-24T00:59:36;6.77;;;6.03;;
9166;SDS011;4618;48.818;9.088;2023-06-24T01:02:02;7.13;;;5.90;;
9166;SDS011;4618;48.818;9.088;2023-06-24T01:04:30;7.50;;;6.37;;
9166;SDS011;4618;48.818;9.088;2023-06-24T01:06:56;6.90;;;6.30;;
9166;SDS011;4618;48.818;9.088;2023-06-24T01:09:22;7.23;;;6.53;;
9166;SDS011;4618;48.818;9.088;2023-06-24T01:11:49;7.40;;;6.70;;
9166;SDS011;4618;48.818;9.088;2023-06-24T01:14:15;9.43;;;7.00;;
9166;SDS011;4618;48.818;9.088;2023-06-24T01:22:31;7.83;;;7.03;;
9166;SDS011;4618;48.818;9.088;2023-06-24T01:36:28;5.57;;;5.07;;
9166;SDS011;4618;48.818;9.088;2023-06-24T01:39:07;6.03;;;5.43;;
9166;SDS011;4618;48.818;9.088;2023-06-24T01:41:36;7.37;;;6.67;;
9166;SDS011;4618;48.818;9.088;2023-06-24T01:44:07;6.50;;;5.90;;
9166;SDS011;4618;48.818;9.088;2023-06-24T01:46:35;7.80;;;7.00;;
9166;SDS011;4618;48.818;9.088;2023-06-24T01:49:02;8.00;;;7.30;;
9166;SDS011;4618;48.818;9.088;2023-06-24T01:51:32;8.67;;;7.87;;
9166;SDS011;4618;48.818;9.088;2023-06-24T01:54:01;8.13;;;7.37;;
9166;SDS011;4618;48.818;9.088;2023-06-24T01:56:29;8.20;;;7.50;;
9166;SDS011;4618;48.818;9.088;2023-06-24T01:58:58;7.60;;;6.50;;
9166;SDS011;4618;48.818;9.088;2023-06-24T02:01:25;7.60;;;6.90;;
9166;SDS011;4618;48.818;9.088;2023-06-24T02:03:52;7.23;;;6.33;;
9166;SDS011;4618;48.818;9.088;2023-06-24T02:06:20;7.53;;;6.80;;
9166;SDS011;4618;48.818;9.088;2023-06-24T02:08:48;7.47;;;6.77;;
9166;SDS011;4618;48.818;9.088;2023-06-24T02:11:15;7.90;;;7.10;;
9166;SDS011;4618;48.818;9.088;2023-06-24T02:13:42;7.70;;;7.03;;
9166;SDS011;4618;48.818;9.088;2023-06-24T02:16:09;8.57;;;7.67;;
9166;SDS011;4618;48.818;9.088;2023-06-24T02:18:36;9.20;;;8.27;;
9166;SDS011;4618;48.818;9.088;2023-06-24T02:21:07;8.67;;;7.77;;
9166;SDS011;4618;48.818;9.088;2023-06-24T02:23:33;9.50;;;8.70;;
9166;SDS011;4618;48.818;9.088;2023-06-24T02:26:04;9.07;;;8.27;;
9166;SDS011;4618;48.818;9.088;2023-06-24T02:28:31;8.37;;;7.57;;
9166;SDS011;4618;48.818;9.088;2023-06-24T02:30:58;8.23;;;7.00;;
9166;SDS011;4618;48.818;9.088;2023-06-24T02:33:24;8.17;;;7.43;;
9166;SDS011;4618;48.818;9.088;2023-06-24T02:35:51;9.03;;;8.23;;
9166;SDS011;4618;48.818;9.088;2023-06-24T02:38:17;8.13;;;7.17;;
9166;SDS011;4618;48.818;9.088;2023-06-24T02:40:43;8.30;;;7.50;;
9166;SDS011;4618;48.818;9.088;2023-06-24T02:43:10;8.47;;;7.67;;
9166;SDS011;4618;48.818;9.088;2023-06-24T02:45:36;7.60;;;6.90;;
9166;SDS011;4618;48.818;9.088;2023-06-24T02:48:02;8.20;;;7.50;;
9166;SDS011;4618;48.818;9.088;2023-06-24T02:50:29;8.10;;;7.40;;
9166;SDS011;4618;48.818;9.088;2023-06-24T02:52:55;9.13;;;8.23;;
9166;SDS011;4618;48.818;9.088;2023-06-24T02:55:22;10.13;;;8.03;;
9166;SDS011;4618;48.818;9.088;2023-06-24T02:57:48;9.50;;;8.50;;
9166;SDS011;4618;48.818;9.088;2023-06-24T03:00:15;9.23;;;8.23;;
9166;SDS011;4618;48.818;9.088;2023-06-24T03:02:41;9.17;;;8.03;;
9166;SDS011;4618;48.818;9.088;2023-06-24T03:05:09;8.93;;;8.03;;
9166;SDS011;4618;48.818;9.088;2023-06-24T03:07:36;9.37;;;8.13;;
9166;SDS011;4618;48.818;9.088;2023-06-24T03:10:03;8.53;;;7.73;;
9166;SDS011;4618;48.818;9.088;2023-06-24T03:12:30;8.87;;;7.80;;
9166;SDS011;4618;48.818;9.088;2023-06-24T03:14:56;9.47;;;8.57;;
9166;SDS011;4618;48.818;9.088;2023-06-24T03:17:21;9.23;;;8.33;;
9166;SDS011;4618;48.818;9.088;2023-06-24T03:19:48;8.67;;;7.80;;
9166;SDS011;4618;48.818;9.088;2023-06-24T03:22:13;8.93;;;8.13;;
9166;SDS011;4618;48.818;9.088;2023-06-24T03:24:39;9.20;;;8.30;;
9166;SDS011;4618;48.818;9.088;2023-06-24T03:27:05;9.27;;;8.37;;
9166;SDS011;4618;48.818;9.088;2023-06-24T03:29:31;8.60;;;7.80;;
9166;SDS011;4618;48.818;9.088;2023-06-24T03:31:56;8.60;;;7.70;;
9166;SDS011;4618;48.818;9.088;2023-06-24T03:34:22;8.67;;;7.87;;
9166;SDS011;4618;48.818;9.088;2023-06-24T03:36:47;8.53;;;7.73;;
9166;SDS011;4618;48.818;9.088;2023-06-24T03:39:13;9.57;;;8.63;;
9166;SDS011;4618;48.818;9.088;2023-06-24T03:41:38;9.60;;;8.30;;
9166;SDS011;4618;48.818;9.088;2023-06-24T03:44:04;9.83;;;7.97;;
9166;SDS011;4618;48.818;9.088;2023-06-24T03:46:30;8.73;;;7.93;;
9166;SDS011;4618;48.818;9.088;2023-06-24T03:48:58;8.80;;;7.90;;
9166;SDS011;4618;48.818;9.088;2023-06-24T03:51:25;8.97;;;8.17;;
9166;SDS011;4618;48.818;9.088;2023-06-24T03:53:50;8.73;;;7.83;;
9166;SDS011;4618;48.818;9.088;2023-06-24T03:56:16;8.90;;;8.07;;
9166;SDS011;4618;48.818;9.088;2023-06-24T03:58:42;8.60;;;7.90;;
9166;SDS011;4618;48.818;9.088;2023-06-24T04:01:07;8.33;;;7.60;;
9166;SDS011;4618;48.818;9.088;2023-06-24T04:03:34;8.17;;;7.37;;
9166;SDS011;4618;48.818;9.088;2023-06-24T04:06:00;8.87;;;7.97;;
9166;SDS011;4618;48.818;9.088;2023-06-24T04:08:26;8.87;;;7.97;;
9166;SDS011;4618;48.818;9.088;2023-06-24T04:10:55;8.13;;;7.43;;
9166;SDS011;4618;48.818;9.088;2023-06-24T04:13:25;8.70;;;7.87;;
9166;SDS011;4618;48.818;9.088;2023-06-24T04:15:51;8.10;;;7.30;;
9166;SDS011;4618;48.818;9.088;2023-06-24T04:18:17;8.47;;;7.67;;
9166;SDS011;4618;48.818;9.088;2023-06-24T04:20:43;8.63;;;7.57;;
9166;SDS011;4618;48.818;9.088;2023-06-24T04:23:09;7.43;;;6.57;;
9166;SDS011;4618;48.818;9.088;2023-06-24T04:25:35;8.23;;;7.50;;
9166;SDS011;4618;48.818;9.088;2023-06-24T04:28:02;8.70;;;7.00;;
9166;SDS011;4618;48.818;9.088;2023-06-24T04:30:29;8.07;;;7.33;;
9166;SDS011;4618;48.818;9.088;2023-06-24T04:32:55;8.03;;;7.23;;
9166;SDS011;4618;48.818;9.088;2023-06-24T04:35:20;8.47;;;7.77;;
9166;SDS011;4618;48.818;9.088;2023-06-24T04:37:46;8.53;;;6.80;;
9166;SDS011;4618;48.818;9.088;2023-06-24T04:40:14;7.77;;;7.13;;
9166;SDS011;4618;48.818;9.088;2023-06-24T04:42:39;8.57;;;7.67;;
9166;SDS011;4618;48.818;9.088;2023-06-24T04:45:05;7.70;;;6.90;;
9166;SDS011;4618;48.818;9.088;2023-06-24T04:47:31;8.17;;;7.47;;
9166;SDS011;4618;48.818;9.088;2023-06-24T04:49:56;8.27;;;7.47;;
9166;SDS011;4618;48.818;9.088;2023-06-24T04:52:25;8.20;;;7.17;;
9166;SDS011;4618;48.818;9.088;2023-06-24T04:54:50;7.80;;;7.00;;
9166;SDS011;4618;48.818;9.088;2023-06-24T04:57:23;8.03;;;7.23;;
9166;SDS011;4618;48.818;9.088;2023-06-24T04:59:52;7.40;;;6.80;;
9166;SDS011;4618;48.818;9.088;2023-06-24T05:02:18;7.33;;;6.63;;
9166;SDS011;4618;48.818;9.088;2023-06-24T05:04:44;7.70;;;6.73;;
9166;SDS011;4618;48.818;9.088;2023-06-24T05:07:09;7.57;;;6.77;;
9166;SDS011;4618;48.818;9.088;2023-06-24T05:09:35;8.60;;;7.27;;
9166;SDS011;4618;48.818;9.088;2023-06-24T05:12:03;8.77;;;6.80;;
9166;SDS011;4618;48.818;9.088;2023-06-24T05:14:29;7.83;;;6.97;;
9166;SDS011;4618;48.818;9.088;2023-06-24T05:16:55;8.50;;;7.30;;
9166;SDS011;4618;48.818;9.088;2023-06-24T05:19:20;9.77;;;7.63;;
9166;SDS011;4618;48.818;9.088;2023-06-24T05:21:46;7.73;;;7.00;;
9166;SDS011;4618;48.818;9.088;2023-06-24T05:24:12;7.90;;;7.03;;
9166;SDS011;4618;48.818;9.088;2023-06-24T05:26:37;8.30;;;6.53;;
9166;SDS011;4618;48.818;9.088;2023-06-24T05:29:03;7.67;;;6.73;;
9166;SDS011;4618;48.818;9.088;2023-06-24T05:31:28;6.40;;;5.40;;
9166;SDS011;4618;48.818;9.088;2023-06-24T05:33:54;8.40;;;6.70;;
9166;SDS011;4618;48.818;9.088;2023-06-24T05:36:19;6.60;;;6.00;;
9166;SDS011;4618;48.818;9.088;2023-06-24T05:38:45;6.20;;;5.70;;
9166;SDS011;4618;48.818;9.088;2023-06-24T05:41:10;6.20;;;5.60;;
9166;SDS011;4618;48.818;9.088;2023-06-24T05:43:36;7.40;;;5.83;;
9166;SDS011;4618;48.818;9.088;2023-06-24T05:46:02;5.90;;;5.40;;
9166;SDS011;4618;48.818;9.088;2023-06-24T05:48:28;6.73;;;6.03;;
9166;SDS011;4618;48.818;9.088;2023-06-24T05:50:53;5.17;;;4.77;;
9166;SDS011;4618;48.818;9.088;2023-06-24T05:53:19;5.97;;;5.47;;
9166;SDS011;4618;48.818;9.088;2023-06-24T05:55:44;5.37;;;4.90;;
9166;SDS011;4618;48.818;9.088;2023-06-24T05:58:10;5.27;;;4.87;;
9166;SDS011;4618;48.818;9.088;2023-06-24T06:00:36;5.43;;;4.70;;
9166;SDS011;4618;48.818;9.088;2023-06-24T06:03:02;5.33;;;4.83;;
9166;SDS011;4618;48.818;9.088;2023-06-24T06:05:27;5.20;;;4.70;;
9166;SDS011;4618;48.818;9.088;2023-06-24T06:07:53;5.10;;;4.70;;
9166;SDS011;4618;48.818;9.088;2023-06-24T06:10:18;5.47;;;4.97;;
9166;SDS011;4618;48.818;9.088;2023-06-24T06:12:44;5.23;;;4.80;;
9166;SDS011;4618;48.818;9.088;2023-06-24T06:15:10;5.03;;;4.63;;
9166;SDS011;4618;48.818;9.088;2023-06-24T06:17:36;5.07;;;4.63;;
9166;SDS011;4618;48.818;9.088;2023-06-24T06:20:02;5.30;;;4.80;;
9166;SDS011;4618;48.818;9.088;2023-06-24T06:22:28;4.73;;;4.33;;
9166;SDS011;4618;48.818;9.088;2023-06-24T06:24:54;5.57;;;4.77;;
9166;SDS011;4618;48.818;9.088;2023-06-24T06:27:19;5.17;;;4.27;;
9166;SDS011;4618;48.818;9.088;2023-06-24T06:29:45;5.03;;;4.50;;
9166;SDS011;4618;48.818;9.088;2023-06-24T06:32:10;4.63;;;4.23;;
9166;SDS011;4618;48.818;9.088;2023-06-24T06:34:36;4.50;;;4.20;;
9166;SDS011;4618;48.818;9.088;2023-06-24T06:37:02;5.47;;;4.03;;
9166;SDS011;4618;48.818;9.088;2023-06-24T06:39:27;4.47;;;4.10;;
9166;SDS011;4618;48.818;9.088;2023-06-24T06:41:53;4.23;;;3.93;;
9166;SDS011;4618;48.818;9.088;2023-06-24T06:44:19;4.03;;;3.73;;
9166;SDS011;4618;48.818;9.088;2023-06-24T06:46:44;4.10;;;3.80;;
9166;SDS011;4618;48.818;9.088;2023-06-24T06:49:10;4.40;;;4.00;;
9166;SDS011;4618;48.818;9.088;2023-06-24T06:51:35;3.77;;;3.43;;
9166;SDS011;4618;48.818;9.088;2023-06-24T06:54:01;3.87;;;3.57;;
9166;SDS011;4618;48.818;9.088;2023-06-24T06:56:28;3.60;;;3.30;;
9166;SDS011;4618;48.818;9.088;2023-06-24T06:58:54;4.80;;;3.40;;
9166;SDS011;4618;48.818;9.088;2023-06-24T07:01:19;4.27;;;3.53;;
9166;SDS011;4618;48.818;9.088;2023-06-24T07:03:45;3.30;;;3.00;;
9166;SDS011;4618;48.818;9.088;2023-06-24T07:06:10;3.60;;;3.30;;
9166;SDS011;4618;48.818;9.088;2023-06-24T07:08:36;3.57;;;3.27;;
9166;SDS011;4618;48.818;9.088;2023-06-24T07:11:02;3.57;;;3.27;;
9166;SDS011;4618;48.818;9.088;2023-06-24T07:13:28;3.90;;;3.50;;
9166;SDS011;4618;48.818;9.088;2023-06-24T07:15:53;4.07;;;3.47;;
9166;SDS011;4618;48.818;9.088;2023-06-24T07:18:19;3.67;;;3.10;;
9166;SDS011;4618;48.818;9.088;2023-06-24T07:20:45;3.63;;;3.27;;
9166;SDS011;4618;48.818;9.088;2023-06-24T07:23:10;3.40;;;3.20;;
9166;SDS011;4618;48.818;9.088;2023-06-24T07:25:36;3.83;;;3.28;;
9166;SDS011;4618;48.818;9.088;2023-06-24T07:28:02;4.07;;;3.00;;
9166;SDS011;4618;48.818;9.088;2023-06-24T07:30:28;3.75;;;3.45;;
9166;SDS011;4618;48.818;9.088;2023-06-24T07:32:54;3.45;;;3.10;;
9166;SDS011;4618;48.818;9.088;2023-06-24T07:35:19;3.30;;;3.00;;
9166;SDS011;4618;48.818;9.088;2023-06-24T07:37:45;3.30;;;3.10;;
9166;SDS011;4618;48.818;9.088;2023-06-24T07:40:10;4.10;;;3.08;;
9166;SDS011;4618;48.818;9.088;2023-06-24T07:42:36;3.20;;;3.00;;
9166;SDS011;4618;48.818;9.088;2023-06-24T07:45:02;3.28;;;2.97;;
9166;SDS011;4618;48.818;9.088;2023-06-24T07:47:28;3.05;;;2.85;;
9166;SDS011;4618;48.818;9.088;2023-06-24T07:49:53;3.10;;;2.90;;
9166;SDS011;4618;48.818;9.088;2023-06-24T07:52:19;3.65;;;3.22;;
9166;SDS011;4618;48.818;9.088;2023-06-24T07:54:45;2.72;;;2.63;;
9166;SDS011;4618;48.818;9.088;2023-06-24T07:57:10;3.33;;;3.13;;
9166;SDS011;4618;48.818;9.088;2023-06-24T07:59:36;3.00;;;2.80;;
9166;SDS011;4618;48.818;9.088;2023-06-24T08:02:01;2.92;;;2.67;;
9166;SDS011;4618;48.818;9.088;2023-06-24T08:04:27;3.03;;;2.83;;
9166;SDS011;4618;48.818;9.088;2023-06-24T08:06:52;3.22;;;2.75;;
9166;SDS011;4618;48.818;9.088;2023-06-24T08:09:18;3.10;;;2.90;;
9166;SDS011;4618;48.818;9.088;2023-06-24T08:11:44;3.03;;;2.70;;
9166;SDS011;4618;48.818;9.088;2023-06-24T08:14:10;3.47;;;3.17;;
9166;SDS011;4618;48.818;9.088;2023-06-24T08:16:35;2.97;;;2.63;;
9166;SDS011;4618;48.818;9.088;2023-06-24T08:19:01;2.92;;;2.65;;
9166;SDS011;4618;48.818;9.088;2023-06-24T08:21:26;2.65;;;2.45;;
9166;SDS011;4618;48.818;9.088;2023-06-24T08:23:52;5.13;;;2.50;;
9166;SDS011;4618;48.818;9.088;2023-06-24T08:26:19;2.90;;;2.70;;
9166;SDS011;4618;48.818;9.088;2023-06-24T08:28:46;2.38;;;2.20;;
9166;SDS011;4618;48.818;9.088;2023-06-24T08:31:13;2.45;;;2.35;;
9166;SDS011;4618;48.818;9.088;2023-06-24T08:33:42;2.58;;;2.38;;
9166;SDS011;4618;48.818;9.088;2023-06-24T08:36:10;2.53;;;2.30;;
9166;SDS011;4618;48.818;9.088;2023-06-24T08:38:35;3.03;;;2.50;;
9166;SDS011;4618;48.818;9.088;2023-06-24T08:41:01;2.60;;;2.40;;
9166;SDS011;4618;48.818;9.088;2023-06-24T08:43:27;2.60;;;2.40;;
9166;SDS011;4618;48.818;9.088;2023-06-24T08:45:53;2.30;;;2.20;;
9166;SDS011;4618;48.818;9.088;2023-06-24T08:48:19;2.42;;;2.20;;
9166;SDS011;4618;48.818;9.088;2023-06-24T08:50:46;2.67;;;2.47;;
9166;SDS011;4618;48.818;9.088;2023-06-24T08:53:16;2.88;;;2.40;;
9166;SDS011;4618;48.818;9.088;2023-06-24T08:55:45;2.72;;;2.53;;
9166;SDS011;4618;48.818;9.088;2023-06-24T08:58:12;2.90;;;2.28;;
9166;SDS011;4618;48.818;9.088;2023-06-24T09:00:38;2.53;;;2.22;;
9166;SDS011;4618;48.818;9.088;2023-06-24T09:03:04;2.13;;;2.03;;
9166;SDS011;4618;48.818;9.088;2023-06-24T09:05:29;2.60;;;2.40;;
9166;SDS011;4618;48.818;9.088;2023-06-24T09:07:55;2.47;;;2.28;;
9166;SDS011;4618;48.818;9.088;2023-06-24T09:10:33;2.42;;;2.22;;
9166;SDS011;4618;48.818;9.088;2023-06-24T09:13:00;2.47;;;2.30;;
9166;SDS011;4618;48.818;9.088;2023-06-24T09:15:30;2.15;;;2.05;;
9166;SDS011;4618;48.818;9.088;2023-06-24T09:17:56;2.45;;;2.13;;
9166;SDS011;4618;48.818;9.088;2023-06-24T09:20:23;2.50;;;2.30;;
9166;SDS011;4618;48.818;9.088;2023-06-24T09:22:50;2.33;;;2.10;;
9166;SDS011;4618;48.818;9.088;2023-06-24T09:25:16;2.10;;;2.00;;
9166;SDS011;4618;48.818;9.088;2023-06-24T09:27:47;2.75;;;1.90;;
9166;SDS011;4618;48.818;9.088;2023-06-24T09:30:17;2.47;;;2.15;;
9166;SDS011;4618;48.818;9.088;2023-06-24T09:32:45;2.13;;;1.92;;
9166;SDS011;4618;48.818;9.088;2023-06-24T09:35:11;2.25;;;1.98;;
9166;SDS011;4618;48.818;9.088;2023-06-24T09:37:37;3.47;;;2.00;;
9166;SDS011;4618;48.818;9.088;2023-06-24T09:40:03;3.97;;;2.10;;
9166;SDS011;4618;48.818;9.088;2023-06-24T09:42:31;2.35;;;2.17;;
9166;SDS011;4618;48.818;9.088;2023-06-24T09:44:56;2.20;;;2.10;;
9166;SDS011;4618;48.818;9.088;2023-06-24T09:47:23;2.45;;;2.22;;
9166;SDS011;4618;48.818;9.088;2023-06-24T09:49:53;2.40;;;2.20;;
9166;SDS011;4618;48.818;9.088;2023-06-24T09:52:19;3.97;;;2.30;;
9166;SDS011;4618;48.818;9.088;2023-06-24T09:54:46;3.25;;;2.75;;
9166;SDS011;4618;48.818;9.088;2023-06-24T09:57:17;3.88;;;2.47;;
9166;SDS011;4618;48.818;9.088;2023-06-24T09:59:52;2.33;;;2.13;;
9166;SDS011;4618;48.818;9.088;2023-06-24T10:02:17;2.35;;;1.92;;
9166;SDS011;4618;48.818;9.088;2023-06-24T10:04:44;2.30;;;2.20;;
9166;SDS011;4618;48.818;9.088;2023-06-24T10:07:10;2.53;;;2.03;;
9166;SDS011;4618;48.818;9.088;2023-06-24T10:09:36;2.17;;;2.00;;
9166;SDS011;4618;48.818;9.088;2023-06-24T10:12:03;2.03;;;1.75;;
9166;SDS011;4618;48.818;9.088;2023-06-24T10:14:30;2.25;;;2.13;;
9166;SDS011;4618;48.818;9.088;2023-06-24T10:17:02;2.10;;;2.00;;
9166;SDS011;4618;48.818;9.088;2023-06-24T10:19:28;2.00;;;1.90;;
9166;SDS011;4618;48.818;9.088;2023-06-24T10:21:58;2.47;;;1.88;;
9166;SDS011;4618;48.818;9.088;2023-06-24T10:24:29;3.15;;;1.80;;
9166;SDS011;4618;48.818;9.088;2023-06-24T10:27:06;1.83;;;1.73;;
9166;SDS011;4618;48.818;9.088;2023-06-24T10:29:33;1.98;;;1.85;;
9166;SDS011;4618;48.818;9.088;2023-06-24T10:32:03;2.10;;;2.00;;
9166;SDS011;4618;48.818;9.088;2023-06-24T10:34:40;2.33;;;2.08;;
9166;SDS011;4618;48.818;9.088;2023-06-24T10:39:47;2.20;;;2.10;;
9166;SDS011;4618;48.818;9.088;2023-06-24T10:42:32;1.92;;;1.60;;
9166;SDS011;4618;48.818;9.088;2023-06-24T10:45:15;1.90;;;1.80;;
9166;SDS011;4618;48.818;9.088;2023-06-24T10:47:45;2.17;;;2.08;;
9166;SDS011;4618;48.818;9.088;2023-06-24T10:50:13;2.47;;;2.10;;
9166;SDS011;4618;48.818;9.088;2023-06-24T10:52:44;2.13;;;2.03;;
9166;SDS011;4618;48.818;9.088;2023-06-24T10:55:12;2.00;;;1.80;;
9166;SDS011;4618;48.818;9.088;2023-06-24T10:57:40;2.00;;;1.90;;
9166;SDS011;4618;48.818;9.088;2023-06-24T11:00:06;1.90;;;1.80;;
9166;SDS011;4618;48.818;9.088;2023-06-24T11:02:32;1.70;;;1.60;;
9166;SDS011;4618;48.818;9.088;2023-06-24T11:04:58;1.75;;;1.65;;
9166;SDS011;4618;48.818;9.088;2023-06-24T11:07:29;3.60;;;1.60;;
9166;SDS011;4618;48.818;9.088;2023-06-24T11:09:58;2.55;;;2.00;;
9166;SDS011;4618;48.818;9.088;2023-06-24T11:12:28;1.70;;;1.70;;
9166;SDS011;4618;48.818;9.088;2023-06-24T11:14:56;2.40;;;1.70;;
9166;SDS011;4618;48.818;9.088;2023-06-24T11:17:44;1.75;;;1.65;;
9166;SDS011;4618;48.818;9.088;2023-06-24T11:20:10;1.80;;;1.70;;
9166;SDS011;4618;48.818;9.088;2023-06-24T11:22:39;1.60;;;1.50;;
9166;SDS011;4618;48.818;9.088;2023-06-24T11:25:05;1.42;;;1.33;;
9166;SDS011;4618;48.818;9.088;2023-06-24T11:27:31;1.70;;;1.60;;
9166;SDS011;4618;48.818;9.088;2023-06-24T11:29:57;2.50;;;1.75;;
9166;SDS011;4618;48.818;9.088;2023-06-24T11:32:34;1.77;;;1.67;;
9166;SDS011;4618;48.818;9.088;2023-06-24T11:35:00;1.73;;;1.60;;
9166;SDS011;4618;48.818;9.088;2023-06-24T11:37:30;1.38;;;1.33;;
9166;SDS011;4618;48.818;9.088;2023-06-24T11:40:00;1.50;;;1.40;;
9166;SDS011;4618;48.818;9.088;2023-06-24T11:42:30;1.42;;;1.33;;
9166;SDS011;4618;48.818;9.088;2023-06-24T11:45:00;1.65;;;1.55;;
9166;SDS011;4618;48.818;9.088;2023-06-24T11:47:31;2.20;;;1.67;;
9166;SDS011;4618;48.818;9.088;2023-06-24T11:49:58;1.80;;;1.70;;
9166;SDS011;4618;48.818;9.088;2023-06-24T11:52:41;1.50;;;1.50;;
9166;SDS011;4618;48.818;9.088;2023-06-24T11:57:51;4.40;;;4.20;;
9166;SDS011;4618;48.818;9.088;2023-06-24T12:00:24;10.15;;;9.35;;
9166;SDS011;4618;48.818;9.088;2023-06-24T12:02:50;1.95;;;1.73;;
9166;SDS011;4618;48.818;9.088;2023-06-24T12:05:27;5.25;;;4.85;;
9166;SDS011;4618;48.818;9.088;2023-06-24T12:07:55;2.00;;;1.90;;
9166;SDS011;4618;48.818;9.088;2023-06-24T12:10:29;2.10;;;2.00;;
9166;SDS011;4618;48.818;9.088;2023-06-24T12:12:58;2.10;;;2.00;;
9166;SDS011;4618;48.818;9.088;2023-06-24T12:15:25;1.80;;;1.70;;
9166;SDS011;4618;48.818;9.088;2023-06-24T12:17:51;3.13;;;2.92;;
9166;SDS011;4618;48.818;9.088;2023-06-24T12:20:16;2.10;;;2.00;;
9166;SDS011;4618;48.818;9.088;2023-06-24T12:22:43;1.70;;;1.60;;
9166;SDS011;4618;48.818;9.088;2023-06-24T12:25:12;2.90;;;2.70;;
9166;SDS011;4618;48.818;9.088;2023-06-24T12:27:38;3.67;;;1.70;;
9166;SDS011;4618;48.818;9.088;2023-06-24T12:30:05;2.13;;;1.63;;
9166;SDS011;4618;48.818;9.088;2023-06-24T12:32:31;5.32;;;1.83;;
9166;SDS011;4618;48.818;9.088;2023-06-24T12:34:57;2.25;;;2.05;;
9166;SDS011;4618;48.818;9.088;2023-06-24T12:37:23;11.50;;;10.50;;
9166;SDS011;4618;48.818;9.088;2023-06-24T12:39:48;3.55;;;3.35;;
9166;SDS011;4618;48.818;9.088;2023-06-24T12:42:16;3.75;;;3.53;;
9166;SDS011;4618;48.818;9.088;2023-06-24T12:44:42;3.28;;;3.08;;
9166;SDS011;4618;48.818;9.088;2023-06-24T12:47:07;2.40;;;2.30;;
9166;SDS011;4618;48.818;9.088;2023-06-24T12:49:33;2.30;;;2.03;;
9166;SDS011;4618;48.818;9.088;2023-06-24T12:51:59;1.80;;;1.70;;
9166;SDS011;4618;48.818;9.088;2023-06-24T12:54:25;2.95;;;1.75;;
9166;SDS011;4618;48.818;9.088;2023-06-24T12:56:51;1.85;;;1.75;;
9166;SDS011;4618;48.818;9.088;2023-06-24T12:59:16;2.10;;;2.00;;
9166;SDS011;4618;48.818;9.088;2023-06-24T13:01:42;1.83;;;1.73;;
9166;SDS011;4618;48.818;9.088;2023-06-24T13:04:09;2.08;;;1.65;;
9166;SDS011;4618;48.818;9.088;2023-06-24T13:06:36;4.05;;;1.90;;
9166;SDS011;4618;48.818;9.088;2023-06-24T13:09:02;1.73;;;1.63;;
9166;SDS011;4618;48.818;9.088;2023-06-24T13:11:28;1.80;;;1.70;;
9166;SDS011;4618;48.818;9.088;2023-06-24T13:13:54;1.75;;;1.65;;
9166;SDS011;4618;48.818;9.088;2023-06-24T13:16:20;2.22;;;1.95;;
9166;SDS011;4618;48.818;9.088;2023-06-24T13:18:46;1.90;;;1.80;;
9166;SDS011;4618;48.818;9.088;2023-06-24T13:21:12;2.13;;;1.92;;
9166;SDS011;4618;48.818;9.088;2023-06-24T13:23:37;2.00;;;1.80;;
9166;SDS011;4618;48.818;9.088;2023-06-24T13:26:04;1.83;;;1.73;;
9166;SDS011;4618;48.818;9.088;2023-06-24T13:28:30;1.80;;;1.70;;
9166;SDS011;4618;48.818;9.088;2023-06-24T13:30:56;4.07;;;1.90;;
9166;SDS011;4618;48.818;9.088;2023-06-24T13:33:22;1.98;;;1.88;;
9166;SDS011;4618;48.818;9.088;2023-06-24T13:35:48;1.80;;;1.70;;
9166;SDS011;4618;48.818;9.088;2023-06-24T13:38:16;1.92;;;1.80;;
9166;SDS011;4618;48.818;9.088;2023-06-24T13:40:42;2.13;;;1.90;;
9166;SDS011;4618;48.818;9.088;2023-06-24T13:43:07;2.47;;;1.90;;
9166;SDS011;4618;48.818;9.088;2023-06-24T13:45:33;2.38;;;1.77;;
9166;SDS011;4618;48.818;9.088;2023-06-24T13:47:59;2.75;;;1.80;;
9166;SDS011;4618;48.818;9.088;2023-06-24T13:50:24;2.15;;;1.95;;
9166;SDS011;4618;48.818;9.088;2023-06-24T13:52:50;1.90;;;1.80;;
9166;SDS011;4618;48.818;9.088;2023-06-24T13:55:16;2.55;;;1.90;;
9166;SDS011;4618;48.818;9.088;2023-06-24T13:57:41;1.90;;;1.80;;
9166;SDS011;4618;48.818;9.088;2023-06-24T14:00:07;2.08;;;1.88;;
9166;SDS011;4618;48.818;9.088;2023-06-24T14:02:34;2.00;;;1.90;;
9166;SDS011;4618;48.818;9.088;2023-06-24T14:04:59;2.33;;;2.00;;
9166;SDS011;4618;48.818;9.088;2023-06-24T14:07:25;1.95;;;1.85;;
9166;SDS011;4618;48.818;9.088;2023-06-24T14:09:51;2.30;;;1.88;;
9166;SDS011;4618;48.818;9.088;2023-06-24T14:12:16;2.10;;;2.00;;
9166;SDS011;4618;48.818;9.088;2023-06-24T14:14:42;1.80;;;1.70;;
9166;SDS011;4618;48.818;9.088;2023-06-24T14:17:07;2.28;;;2.15;;
9166;SDS011;4618;48.818;9.088;2023-06-24T14:19:35;1.98;;;1.83;;
9166;SDS011;4618;48.818;9.088;2023-06-24T14:22:00;3.08;;;2.08;;
9166;SDS011;4618;48.818;9.088;2023-06-24T14:24:26;2.45;;;2.25;;
9166;SDS011;4618;48.818;9.088;2023-06-24T14:26:51;2.47;;;1.98;;
9166;SDS011;4618;48.818;9.088;2023-06-24T14:29:17;2.10;;;1.90;;
9166;SDS011;4618;48.818;9.088;2023-06-24T14:31:43;2.17;;;2.08;;
9166;SDS011;4618;48.818;9.088;2023-06-24T14:34:09;2.40;;;2.30;;
9166;SDS011;4618;48.818;9.088;2023-06-24T14:36:34;2.38;;;1.83;;
9166;SDS011;4618;48.818;9.088;2023-06-24T14:39:00;2.13;;;2.03;;
9166;SDS011;4618;48.818;9.088;2023-06-24T14:41:25;2.17;;;2.08;;
9166;SDS011;4618;48.818;9.088;2023-06-24T14:43:51;2.08;;;1.98;;
9166;SDS011;4618;48.818;9.088;2023-06-24T14:46:17;2.25;;;2.10;;
9166;SDS011;4618;48.818;9.088;2023-06-24T14:48:42;2.30;;;1.95;;
9166;SDS011;4618;48.818;9.088;2023-06-24T14:51:08;2.38;;;2.20;;
9166;SDS011;4618;48.818;9.088;2023-06-24T14:53:33;2.17;;;2.08;;
9166;SDS011;4618;48.818;9.088;2023-06-24T14:55:59;1.80;;;1.70;;
9166;SDS011;4618;48.818;9.088;2023-06-24T14:58:24;2.50;;;2.30;;
9166;SDS011;4618;48.818;9.088;2023-06-24T15:00:50;2.08;;;1.98;;
9166;SDS011;4618;48.818;9.088;2023-06-24T15:03:16;2.20;;;1.80;;
9166;SDS011;4618;48.818;9.088;2023-06-24T15:05:41;2.20;;;2.10;;
9166;SDS011;4618;48.818;9.088;2023-06-24T15:08:07;2.22;;;2.03;;
9166;SDS011;4618;48.818;9.088;2023-06-24T15:10:32;4.70;;;2.03;;
9166;SDS011;4618;48.818;9.088;2023-06-24T15:12:58;2.17;;;2.00;;
9166;SDS011;4618;48.818;9.088;2023-06-24T15:15:24;3.88;;;2.45;;
9166;SDS011;4618;48.818;9.088;2023-06-24T15:17:49;2.22;;;2.05;;
9166;SDS011;4618;48.818;9.088;2023-06-24T15:20:15;2.10;;;2.00;;
9166;SDS011;4618;48.818;9.088;2023-06-24T15:22:40;4.22;;;2.50;;
9166;SDS011;4618;48.818;9.088;2023-06-24T15:25:07;2.67;;;1.98;;
9166;SDS011;4618;48.818;9.088;2023-06-24T15:27:33;7.10;;;2.70;;
9166;SDS011;4618;48.818;9.088;2023-06-24T15:29:58;2.92;;;2.05;;
9166;SDS011;4618;48.818;9.088;2023-06-24T15:32:24;18.38;;;4.47;;
9166;SDS011;4618;48.818;9.088;2023-06-24T15:34:49;2.47;;;2.28;;